createdAt,value
2018-02-14T00:01:48.784Z,100695.38
2018-02-14T00:04:16.270Z,100701.53
2018-02-14T00:06:43.754Z,100700.04
2018-02-14T00:09:11.253Z,100698.36
2018-02-14T00:11:39.613Z,100700.37
2018-02-14T00:14:07.125Z,100697.25
2018-02-14T00:16:34.738Z,100695.82
2018-02-14T00:19:02.261Z,100697.38
2018-02-14T00:21:29.757Z,100711.50
2018-02-14T00:23:57.277Z,100718.45
2018-02-14T00:26:24.792Z,100707.02
2018-02-14T00:28:52.293Z,100709.77
2018-02-14T00:31:19.806Z,100708.42
2018-02-14T00:33:47.282Z,100706.77
2018-02-14T00:36:14.775Z,100708.37
2018-02-14T00:38:42.265Z,100707.48
2018-02-14T00:41:09.757Z,100711.06
2018-02-14T00:43:37.248Z,100719.11
2018-02-14T00:46:04.720Z,100714.09
2018-02-14T00:48:32.228Z,100719.27
2018-02-14T00:50:59.698Z,100720.27
2018-02-14T00:53:27.194Z,100713.52
2018-02-14T00:55:54.682Z,100721.19
2018-02-14T00:58:22.157Z,100723.78
2018-02-14T01:00:49.667Z,100721.56
2018-02-14T01:03:17.141Z,100719.07
2018-02-14T01:05:44.632Z,100729.40
2018-02-14T01:08:12.118Z,100728.28
2018-02-14T01:10:39.616Z,100730.77
2018-02-14T01:13:07.122Z,100733.16
2018-02-14T01:15:34.628Z,100731.84
2018-02-14T01:18:02.144Z,100737.43
2018-02-14T01:20:35.429Z,100733.40
2018-02-14T01:23:02.939Z,100742.79
2018-02-14T01:25:30.448Z,100741.89
2018-02-14T01:27:57.964Z,100745.21
2018-02-14T01:30:25.485Z,100746.56
2018-02-14T01:32:53.043Z,100752.83
2018-02-14T01:35:20.559Z,100751.58
2018-02-14T01:37:48.056Z,100751.09
2018-02-14T01:40:15.564Z,100751.36
2018-02-14T01:42:43.060Z,100756.67
2018-02-14T01:45:10.593Z,100757.36
2018-02-14T01:47:38.111Z,100756.27
2018-02-14T01:50:05.611Z,100761.20
2018-02-14T01:52:33.106Z,100758.36
2018-02-14T01:55:00.654Z,100753.94
2018-02-14T01:57:28.145Z,100760.00
2018-02-14T01:59:55.618Z,100766.64
2018-02-14T02:02:23.136Z,100770.22
2018-02-14T02:04:50.656Z,100767.54
2018-02-14T02:07:18.117Z,100767.53
2018-02-14T02:09:45.621Z,100768.94
2018-02-14T02:12:13.150Z,100772.05
2018-02-14T02:14:40.654Z,100776.15
2018-02-14T02:17:08.150Z,100770.84
2018-02-14T02:19:35.652Z,100775.55
2018-02-14T02:22:03.172Z,100781.23
2018-02-14T02:24:30.646Z,100783.73
2018-02-14T02:26:58.140Z,100783.38
2018-02-14T02:29:25.648Z,100770.84
2018-02-14T02:31:53.126Z,100776.70
2018-02-14T02:34:20.609Z,100782.80
2018-02-14T02:36:48.088Z,100787.61
2018-02-14T02:39:27.353Z,100785.48
2018-02-14T02:41:54.834Z,100787.66
2018-02-14T02:44:22.360Z,100784.81
2018-02-14T02:46:49.860Z,100789.29
2018-02-14T02:49:17.353Z,100790.88
2018-02-14T02:51:44.823Z,100791.73
2018-02-14T02:54:12.320Z,100793.45
2018-02-14T02:56:39.797Z,100798.98
2018-02-14T02:59:07.279Z,100801.41
2018-02-14T03:01:34.772Z,100797.01
2018-02-14T03:04:02.256Z,100800.84
2018-02-14T03:06:29.754Z,100802.66
2018-02-14T03:08:57.256Z,100808.31
2018-02-14T03:11:24.752Z,100808.31
2018-02-14T03:13:52.252Z,100805.39
2018-02-14T03:16:19.770Z,100809.47
2018-02-14T03:18:47.272Z,100805.19
2018-02-14T03:21:14.749Z,100808.24
2018-02-14T03:23:42.244Z,100809.34
2018-02-14T03:26:09.748Z,100807.95
2018-02-14T03:28:37.256Z,100809.78
2018-02-14T03:31:06.705Z,100809.55
2018-02-14T03:33:34.192Z,100814.60
2018-02-14T03:36:01.671Z,100811.55
2018-02-14T03:38:29.150Z,100814.27
2018-02-14T03:40:56.645Z,100812.34
2018-02-14T03:43:24.134Z,100815.40
2018-02-14T03:45:51.650Z,100819.41
2018-02-14T03:48:19.133Z,100819.98
2018-02-14T03:50:46.617Z,100824.09
2018-02-14T03:53:14.116Z,100828.20
2018-02-14T03:55:41.613Z,100828.30
2018-02-14T03:58:09.089Z,100828.92
2018-02-14T04:00:36.584Z,100826.71
2018-02-14T04:03:04.089Z,100832.12
2018-02-14T04:05:31.570Z,100828.42
2018-02-14T04:07:59.083Z,100835.12
2018-02-14T04:10:26.570Z,100839.10
2018-02-14T04:12:54.075Z,100834.91
2018-02-14T04:15:21.592Z,100846.97
2018-02-14T04:17:49.106Z,100843.10
2018-02-14T04:20:16.598Z,100851.31
2018-02-14T04:22:44.112Z,100854.11
2018-02-14T04:25:11.599Z,100855.62
2018-02-14T04:27:39.086Z,100857.08
2018-02-14T04:30:06.574Z,100851.70
2018-02-14T04:32:34.119Z,100858.67
2018-02-14T04:35:01.597Z,100859.91
2018-02-14T04:37:29.101Z,100863.02
2018-02-14T04:39:58.546Z,100864.41
2018-02-14T04:42:26.048Z,100865.09
2018-02-14T04:44:53.555Z,100875.31
2018-02-14T04:47:24.001Z,100870.47
2018-02-14T04:49:51.535Z,100875.53
2018-02-14T04:52:19.018Z,100877.81
2018-02-14T04:54:46.501Z,100885.13
2018-02-14T04:57:13.997Z,100883.51
2018-02-14T04:59:41.546Z,100885.95
2018-02-14T05:02:09.068Z,100889.12
2018-02-14T05:04:39.189Z,100899.79
2018-02-14T05:07:06.767Z,100899.56
2018-02-14T05:09:34.289Z,100898.03
2018-02-14T05:12:01.919Z,100900.39
2018-02-14T05:14:29.483Z,100904.57
2018-02-14T05:16:56.982Z,100906.05
2018-02-14T05:19:24.517Z,100908.33
2018-02-14T05:21:52.039Z,100913.99
2018-02-14T05:24:19.545Z,100916.80
2018-02-14T05:26:49.207Z,100924.66
2018-02-14T05:29:16.733Z,100932.61
2018-02-14T05:31:44.267Z,100932.95
2018-02-14T05:34:11.794Z,100928.23
2018-02-14T05:36:39.328Z,100928.53
2018-02-14T05:39:06.864Z,100932.35
2018-02-14T05:41:34.537Z,100929.91
2018-02-14T05:44:02.272Z,100931.66
2018-02-14T05:46:29.880Z,100933.18
2018-02-14T05:48:57.473Z,100926.80
2018-02-14T05:51:25.089Z,100927.03
2018-02-14T05:53:52.621Z,100919.77
2018-02-14T05:56:20.160Z,100931.97
2018-02-14T05:58:47.666Z,100927.97
2018-02-14T06:01:18.151Z,100931.92
2018-02-14T06:03:45.817Z,100936.28
2018-02-14T06:06:13.392Z,100932.89
2018-02-14T06:08:40.975Z,100943.14
2018-02-14T06:11:08.577Z,100946.12
2018-02-14T06:13:36.093Z,100946.95
2018-02-14T06:16:03.649Z,100944.97
2018-02-14T06:18:31.186Z,100948.30
2018-02-14T06:20:58.855Z,100956.34
2018-02-14T06:23:26.588Z,100951.21
2018-02-14T06:25:54.117Z,100954.06
2018-02-14T06:28:21.752Z,100957.73
2018-02-14T06:30:49.283Z,100951.01
2018-02-14T06:33:16.820Z,100960.60
2018-02-14T06:35:44.339Z,100960.38
2018-02-14T06:38:11.875Z,100971.17
2018-02-14T06:40:39.557Z,100966.22
2018-02-14T06:43:07.224Z,100971.00
2018-02-14T06:45:34.757Z,100969.06
2018-02-14T06:48:02.241Z,100977.98
2018-02-14T06:50:29.764Z,100975.66
2018-02-14T06:52:57.260Z,100977.72
2018-02-14T06:55:24.823Z,100974.72
2018-02-14T06:57:52.344Z,100972.03
2018-02-14T07:00:19.857Z,100977.34
2018-02-14T07:02:47.364Z,100977.62
2018-02-14T07:05:14.892Z,100982.02
2018-02-14T07:07:42.382Z,100980.80
2018-02-14T07:10:09.881Z,100983.08
2018-02-14T07:12:37.390Z,100990.59
2018-02-14T07:15:04.933Z,100987.72
2018-02-14T07:17:32.422Z,100994.19
2018-02-14T07:19:59.985Z,100992.38
2018-02-14T07:22:27.514Z,100998.39
2018-02-14T07:24:55.105Z,100994.17
2018-02-14T07:27:22.590Z,100994.06
2018-02-14T07:29:50.106Z,100995.30
2018-02-14T07:32:17.609Z,100999.09
2018-02-14T07:34:45.141Z,101002.39
2018-02-14T07:37:12.691Z,101005.05
2018-02-14T07:39:40.222Z,101005.73
2018-02-14T07:42:07.751Z,101014.14
2018-02-14T07:44:35.272Z,101009.50
2018-02-14T07:47:02.799Z,101014.53
2018-02-14T07:49:30.362Z,101014.69
2018-02-14T07:51:57.887Z,101013.95
2018-02-14T07:54:25.401Z,101019.19
2018-02-14T07:56:52.939Z,101025.87
2018-02-14T07:59:20.549Z,101023.85
2018-02-14T08:01:48.072Z,101026.12
2018-02-14T08:04:15.570Z,101025.53
2018-02-14T08:06:43.094Z,101029.32
2018-02-14T08:09:10.614Z,101028.44
2018-02-14T08:11:38.109Z,101027.64
2018-02-14T08:14:05.624Z,101030.48
2018-02-14T08:16:33.127Z,101029.73
2018-02-14T08:19:00.643Z,101030.80
2018-02-14T08:21:28.137Z,101029.16
2018-02-14T08:23:55.618Z,101028.11
2018-02-14T08:26:23.107Z,101028.78
2018-02-14T08:28:50.622Z,101029.91
2018-02-14T08:31:18.144Z,101029.28
2018-02-14T08:33:45.668Z,101034.59
2018-02-14T08:36:13.164Z,101032.61
2018-02-14T08:38:40.705Z,101032.09
2018-02-14T08:41:08.282Z,101026.89
2018-02-14T08:43:35.840Z,101029.25
2018-02-14T08:46:03.337Z,101025.59
2018-02-14T08:48:30.836Z,101029.80
2018-02-14T08:50:58.390Z,101029.98
2018-02-14T08:53:25.913Z,101034.81
2018-02-14T08:55:53.400Z,101035.61
2018-02-14T08:58:20.968Z,101032.91
2018-02-14T09:00:48.472Z,101037.80
2018-02-14T09:03:16.032Z,101038.58
2018-02-14T09:05:43.560Z,101042.05
2018-02-14T09:08:11.150Z,101044.66
2018-02-14T09:10:38.736Z,101042.39
2018-02-14T09:13:06.262Z,101048.59
2018-02-14T09:15:33.757Z,101048.70
2018-02-14T09:18:01.420Z,101052.53
2018-02-14T09:20:28.925Z,101057.31
2018-02-14T09:22:56.435Z,101057.07
2018-02-14T09:25:23.930Z,101061.83
2018-02-14T09:27:51.469Z,101064.44
2018-02-14T09:30:19.021Z,101064.91
2018-02-14T09:32:46.515Z,101070.42
2018-02-14T09:35:14.033Z,101077.03
2018-02-14T09:37:41.551Z,101076.63
2018-02-14T09:40:09.363Z,101083.30
2018-02-14T09:42:36.845Z,101092.38
2018-02-14T09:45:04.376Z,101095.28
2018-02-14T09:47:31.990Z,101100.88
2018-02-14T09:49:59.512Z,101101.31
2018-02-14T09:52:27.039Z,101098.58
2018-02-14T09:54:54.601Z,101094.94
2018-02-14T09:57:22.168Z,101104.28
2018-02-14T09:59:49.718Z,101105.16
2018-02-14T10:02:17.238Z,101112.37
2018-02-14T10:04:44.837Z,101112.80
2018-02-14T10:07:12.359Z,101115.51
2018-02-14T10:09:39.901Z,101116.16
2018-02-14T10:12:07.444Z,101119.19
2018-02-14T10:14:34.933Z,101127.95
2018-02-14T10:17:02.456Z,101135.88
2018-02-14T10:19:29.950Z,101133.47
2018-02-14T10:21:57.525Z,101135.98
2018-02-14T10:24:25.080Z,101133.69
2018-02-14T10:26:52.673Z,101129.79
2018-02-14T10:29:20.199Z,101125.45
2018-02-14T10:31:47.807Z,101126.72
2018-02-14T10:34:15.359Z,101133.69
2018-02-14T10:36:42.853Z,101123.45
2018-02-14T10:39:10.481Z,101123.69
2018-02-14T10:41:38.004Z,101121.16
2018-02-14T10:44:05.568Z,101123.93
2018-02-14T10:46:33.086Z,101119.36
2018-02-14T10:49:00.626Z,101119.42
2018-02-14T10:51:28.148Z,101121.54
2018-02-14T10:53:55.661Z,101117.73
2018-02-14T10:56:23.210Z,101123.45
2018-02-14T10:58:50.699Z,101119.30
2018-02-14T11:01:23.877Z,101123.69
2018-02-14T11:03:51.431Z,101130.23
2018-02-14T11:06:18.950Z,101120.78
2018-02-14T11:08:46.500Z,101115.26
2018-02-14T11:11:14.009Z,101122.91
2018-02-14T11:13:41.536Z,101117.23
2018-02-14T11:16:09.061Z,101108.75
2018-02-14T11:18:36.618Z,101111.75
2018-02-14T11:21:04.142Z,101106.22
2018-02-14T11:23:31.704Z,101106.72
2018-02-14T11:25:59.200Z,101111.17
2018-02-14T11:28:26.794Z,101104.86
2018-02-14T11:30:54.315Z,101106.03
2018-02-14T11:33:22.185Z,101105.20
2018-02-14T11:35:49.691Z,101100.09
2018-02-14T11:38:17.196Z,101095.33
2018-02-14T11:40:44.735Z,101092.88
2018-02-14T11:43:12.248Z,101100.69
2018-02-14T11:45:39.729Z,101097.23
2018-02-14T11:48:07.312Z,101093.38
2018-02-14T11:50:34.851Z,101091.11
2018-02-14T11:53:02.377Z,101091.48
2018-02-14T11:55:29.914Z,101087.59
2018-02-14T11:57:57.450Z,101091.42
2018-02-14T12:00:25.054Z,101087.79
2018-02-14T12:02:52.570Z,101097.08
2018-02-14T12:05:20.099Z,101089.09
2018-02-14T12:07:47.628Z,101093.97
2018-02-14T12:10:15.136Z,101099.77
2018-02-14T12:12:42.636Z,101099.50
2018-02-14T12:15:10.216Z,101099.92
2018-02-14T12:17:37.704Z,101098.16
2018-02-14T12:20:05.210Z,101100.19
2018-02-14T12:22:32.781Z,101093.70
2018-02-14T12:25:00.270Z,101091.38
2018-02-14T12:27:27.787Z,101093.77
2018-02-14T12:30:00.369Z,101092.05
2018-02-14T12:32:27.880Z,101088.73
2018-02-14T12:34:55.434Z,101086.88
2018-02-14T12:37:22.962Z,101088.24
2018-02-14T12:39:51.688Z,101090.20
2018-02-14T12:42:19.862Z,101093.86
2018-02-14T12:44:47.741Z,101086.33
2018-02-14T12:47:17.017Z,101085.17
2018-02-14T12:49:44.699Z,101088.39
2018-02-14T12:52:13.245Z,101084.59
2018-02-14T12:54:40.826Z,101083.49
2018-02-14T12:57:08.373Z,101078.48
2018-02-14T12:59:38.006Z,101080.64
2018-02-14T13:02:05.511Z,101079.69
2018-02-14T13:04:33.026Z,101080.73
2018-02-14T13:07:00.590Z,101068.48
2018-02-14T13:09:28.090Z,101069.58
2018-02-14T13:11:56.937Z,101084.05
2018-02-14T13:14:24.490Z,101070.17
2018-02-14T13:16:54.307Z,101076.17
2018-02-14T13:19:23.038Z,101068.70
2018-02-14T13:21:51.857Z,101067.19
2018-02-14T13:24:19.448Z,101057.50
2018-02-14T13:26:47.094Z,101064.50
2018-02-14T13:29:14.746Z,101069.48
2018-02-14T13:31:42.296Z,101070.39
2018-02-14T13:34:09.862Z,101056.38
2018-02-14T13:36:37.656Z,101060.14
2018-02-14T13:39:06.733Z,101065.95
2018-02-14T13:41:35.215Z,101070.42
2018-02-14T13:44:02.757Z,101070.80
2018-02-14T13:46:30.261Z,101070.87
2018-02-14T13:49:01.640Z,101076.69
2018-02-14T13:51:29.243Z,101071.12
2018-02-14T13:53:56.798Z,101063.20
2018-02-14T13:56:26.948Z,101074.30
2018-02-14T13:58:57.057Z,101079.95
2018-02-14T14:01:24.593Z,101072.00
2018-02-14T14:03:52.227Z,101077.87
2018-02-14T14:06:19.819Z,101075.72
2018-02-14T14:08:47.382Z,101073.08
2018-02-14T14:11:15.153Z,101080.14
2018-02-14T14:13:42.730Z,101080.11
2018-02-14T14:16:10.266Z,101081.14
2018-02-14T14:18:37.892Z,101080.30
2018-02-14T14:21:05.490Z,101077.49
2018-02-14T14:23:33.059Z,101078.34
2018-02-14T14:26:00.601Z,101082.06
2018-02-14T14:28:28.173Z,101081.95
2018-02-14T14:30:55.719Z,101076.08
2018-02-14T14:33:23.237Z,101070.16
2018-02-14T14:35:50.868Z,101073.04
2018-02-14T14:38:18.743Z,101073.80
2018-02-14T14:40:46.692Z,101079.98
2018-02-14T14:43:14.241Z,101079.22
2018-02-14T14:45:41.760Z,101077.19
2018-02-14T14:48:09.281Z,101086.70
2018-02-14T14:50:39.836Z,101087.71
2018-02-14T14:53:07.360Z,101087.09
2018-02-14T14:55:34.914Z,101091.81
2018-02-14T14:58:02.461Z,101087.21
2018-02-14T15:00:30.040Z,101092.58
2018-02-14T15:02:58.177Z,101079.86
2018-02-14T15:05:28.334Z,101088.35
2018-02-14T15:07:56.747Z,101089.66
2018-02-14T15:10:26.867Z,101092.96
2018-02-14T15:12:55.876Z,101090.00
2018-02-14T15:15:24.516Z,101091.40
2018-02-14T15:17:52.407Z,101089.30
2018-02-14T15:20:21.109Z,101091.36
2018-02-14T15:22:49.253Z,101092.29
2018-02-14T15:25:17.650Z,101097.39
2018-02-14T15:27:46.023Z,101092.03
2018-02-14T15:30:13.622Z,101095.83
2018-02-14T15:32:41.203Z,101087.56
2018-02-14T15:35:09.120Z,101093.05
2018-02-14T15:37:36.629Z,101085.45
2018-02-14T15:40:04.125Z,101095.48
2018-02-14T15:45:22.040Z,101106.95
2018-02-14T15:47:49.596Z,101100.32
2018-02-14T15:50:17.201Z,101094.74
2018-02-14T15:52:44.740Z,101102.58
2018-02-14T15:55:12.478Z,101109.09
2018-02-14T15:57:40.009Z,101107.27
2018-02-14T16:00:08.551Z,101117.39
2018-02-14T16:02:36.081Z,101109.06
2018-02-14T16:05:03.820Z,101116.06
2018-02-14T16:07:31.433Z,101102.47
2018-02-14T16:09:59.073Z,101110.34
2018-02-14T16:12:27.056Z,101107.83
2018-02-14T16:14:54.632Z,101121.21
2018-02-14T16:17:22.172Z,101116.89
2018-02-14T16:19:49.797Z,101115.12
2018-02-14T16:22:17.389Z,101116.68
2018-02-14T16:24:45.576Z,101111.09
2018-02-14T16:27:13.236Z,101121.05
2018-02-14T16:29:40.825Z,101113.36
2018-02-14T16:32:08.525Z,101117.52
2018-02-14T16:34:38.346Z,101113.88
2018-02-14T16:37:07.093Z,101113.94
2018-02-14T16:39:35.067Z,101115.93
2018-02-14T16:42:04.177Z,101121.55
2018-02-14T16:44:31.836Z,101118.19
2018-02-14T16:46:59.496Z,101119.33
2018-02-14T16:49:27.051Z,101116.31
2018-02-14T16:51:54.722Z,101122.89
2018-02-14T16:54:22.967Z,101135.16
2018-02-14T16:56:51.026Z,101133.30
2018-02-14T16:59:18.590Z,101125.61
2018-02-14T17:01:47.352Z,101130.97
2018-02-14T17:04:15.047Z,101133.54
2018-02-14T17:06:43.203Z,101131.75
2018-02-14T17:09:10.982Z,101130.44
2018-02-14T17:11:38.550Z,101130.42
2018-02-14T17:14:06.082Z,101126.75
2018-02-14T17:16:33.610Z,101130.36
2018-02-14T17:19:01.193Z,101139.31
2018-02-14T17:21:28.753Z,101144.05
2018-02-14T17:23:56.357Z,101148.27
2018-02-14T17:26:23.916Z,101156.15
2018-02-14T17:28:51.474Z,101157.83
2018-02-14T17:31:19.027Z,101156.03
2018-02-14T17:33:46.614Z,101154.09
2018-02-14T17:36:14.338Z,101164.50
2018-02-14T17:38:42.430Z,101158.05
2018-02-14T17:41:10.074Z,101161.37
2018-02-14T17:43:37.730Z,101163.17
2018-02-14T17:46:05.288Z,101165.80
2018-02-14T17:48:32.869Z,101163.95
2018-02-14T17:51:00.457Z,101168.02
2018-02-14T17:53:28.203Z,101187.91
2018-02-14T17:55:55.952Z,101188.81
2018-02-14T17:58:23.558Z,101189.19
2018-02-14T18:00:51.152Z,101197.11
2018-02-14T18:03:18.713Z,101204.56
2018-02-14T18:05:46.316Z,101198.55
2018-02-14T18:08:13.872Z,101204.36
2018-02-14T18:10:41.503Z,101201.83
2018-02-14T18:13:09.029Z,101208.84
2018-02-14T18:15:36.626Z,101209.06
2018-02-14T18:18:06.894Z,101205.64
2018-02-14T18:20:34.422Z,101202.71
2018-02-14T18:23:02.037Z,101196.45
2018-02-14T18:25:29.547Z,101198.30
2018-02-14T18:27:57.150Z,101203.33
2018-02-14T18:30:24.767Z,101200.97
2018-02-14T18:32:52.315Z,101199.06
2018-02-14T18:35:19.888Z,101200.33
2018-02-14T18:37:47.434Z,101201.99
2018-02-14T18:40:14.948Z,101198.50
2018-02-14T18:42:42.516Z,101196.70
2018-02-14T18:45:10.022Z,101197.10
2018-02-14T18:47:38.392Z,101201.31
2018-02-14T18:50:05.968Z,101198.32
2018-02-14T18:52:33.538Z,101196.14
2018-02-14T18:55:01.096Z,101211.20
2018-02-14T18:57:28.693Z,101204.41
2018-02-14T18:59:56.225Z,101205.94
2018-02-14T19:02:23.766Z,101203.48
2018-02-14T19:04:51.524Z,101194.60
2018-02-14T19:07:19.175Z,101206.93
2018-02-14T19:09:46.779Z,101200.12
2018-02-14T19:12:14.392Z,101196.20
2018-02-14T19:14:41.961Z,101198.72
2018-02-14T19:17:09.622Z,101183.24
2018-02-14T19:19:37.297Z,101182.33
2018-02-14T19:22:04.845Z,101182.84
2018-02-14T19:24:32.403Z,101183.09
2018-02-14T19:26:59.982Z,101180.31
2018-02-14T19:29:27.564Z,101177.02
2018-02-14T19:31:55.149Z,101179.83
2018-02-14T19:34:22.666Z,101173.92
2018-02-14T19:36:50.717Z,101159.66
2018-02-14T19:39:18.398Z,101158.87
2018-02-14T19:41:45.945Z,101157.19
2018-02-14T19:44:13.461Z,101156.72
2018-02-14T19:46:41.026Z,101162.38
2018-02-14T19:49:08.564Z,101172.31
2018-02-14T19:51:36.097Z,101150.00
2018-02-14T19:54:03.749Z,101157.34
2018-02-14T19:56:31.253Z,101162.88
2018-02-14T19:58:58.845Z,101156.56
2018-02-14T20:01:26.353Z,101156.49
2018-02-14T20:03:53.972Z,101145.08
2018-02-14T20:06:21.487Z,101162.31
2018-02-14T20:08:49.032Z,101148.31
2018-02-14T20:11:16.572Z,101142.48
2018-02-14T20:13:44.143Z,101148.95
2018-02-14T20:16:11.631Z,101154.84
2018-02-14T20:18:39.267Z,101151.59
2018-02-14T20:21:06.750Z,101154.39
2018-02-14T20:23:34.416Z,101149.28
2018-02-14T20:26:02.025Z,101146.20
2018-02-14T20:28:30.706Z,101141.92
2018-02-14T20:30:58.204Z,101141.63
2018-02-14T20:33:25.730Z,101147.74
2018-02-14T20:35:53.360Z,101148.79
2018-02-14T20:38:20.860Z,101142.55
2018-02-14T20:40:48.337Z,101156.41
2018-02-14T20:43:15.942Z,101166.49
2018-02-14T20:45:43.433Z,101158.87
2018-02-14T20:48:10.923Z,101162.94
2018-02-14T20:50:39.405Z,101162.91
2018-02-14T20:53:06.900Z,101154.44
2018-02-14T20:55:34.395Z,101147.66
2018-02-14T20:58:01.892Z,101146.91
2018-02-14T21:00:29.378Z,101131.49
2018-02-14T21:02:56.929Z,101129.31
2018-02-14T21:05:25.900Z,101135.13
2018-02-14T21:07:53.373Z,101131.69
2018-02-14T21:10:20.874Z,101118.20
2018-02-14T21:12:48.410Z,101108.87
2018-02-14T21:15:15.908Z,101123.57
2018-02-14T21:17:43.440Z,101121.84
2018-02-14T21:20:10.938Z,101117.98
2018-02-14T21:22:38.526Z,101094.48
2018-02-14T21:25:06.180Z,101095.58
2018-02-14T21:27:33.685Z,101104.34
2018-02-14T21:30:13.865Z,101101.04
2018-02-14T21:32:42.172Z,101088.73
2018-02-14T21:35:09.657Z,101081.88
2018-02-14T21:37:37.136Z,101088.23
2018-02-14T21:40:04.622Z,101071.86
2018-02-14T21:42:32.108Z,101066.03
2018-02-14T21:44:59.604Z,101078.80
2018-02-14T21:47:27.091Z,101075.37
2018-02-14T21:49:54.656Z,101075.41
2018-02-14T21:52:22.159Z,101062.84
2018-02-14T21:54:49.696Z,101062.83
2018-02-14T21:57:17.169Z,101055.70
2018-02-14T21:59:44.679Z,101063.31
2018-02-14T22:02:12.183Z,101043.60
2018-02-14T22:04:39.657Z,101054.50
2018-02-14T22:07:07.168Z,101059.83
2018-02-14T22:09:34.685Z,101067.31
2018-02-14T22:12:02.157Z,101069.41
2018-02-14T22:14:29.648Z,101088.70
2018-02-14T22:16:57.158Z,101081.00
2018-02-14T22:19:24.630Z,101077.93
2018-02-14T22:21:52.105Z,101084.57
2018-02-14T22:24:19.600Z,101071.59
2018-02-14T22:26:47.097Z,101077.27
2018-02-14T22:29:14.589Z,101082.88
2018-02-14T22:31:42.063Z,101071.56
2018-02-14T22:34:09.557Z,101074.91
2018-02-14T22:36:37.072Z,101069.25
2018-02-14T22:39:04.600Z,101066.73
2018-02-14T22:41:32.076Z,101073.22
2018-02-14T22:43:59.573Z,101050.57
2018-02-14T22:46:27.077Z,101044.61
2018-02-14T22:48:54.569Z,101046.14
2018-02-14T22:51:22.091Z,101030.91
2018-02-14T22:53:49.584Z,101034.32
2018-02-14T22:56:17.076Z,101038.64
2018-02-14T22:58:44.607Z,101045.31
2018-02-14T23:01:12.090Z,101047.58
2018-02-14T23:03:39.607Z,101051.36
2018-02-14T23:06:07.092Z,101039.48
2018-02-14T23:08:34.604Z,101055.20
2018-02-14T23:11:02.100Z,101063.20
2018-02-14T23:13:29.593Z,101061.23
2018-02-14T23:15:57.105Z,101049.08
2018-02-14T23:18:24.612Z,101055.06
2018-02-14T23:20:52.111Z,101062.48
2018-02-14T23:23:19.628Z,101054.19
2018-02-14T23:25:47.090Z,101048.38
2018-02-14T23:28:14.581Z,101022.58
2018-02-14T23:30:42.058Z,101024.63
2018-02-14T23:33:09.555Z,101019.80
2018-02-14T23:35:37.071Z,101020.34
2018-02-14T23:38:04.612Z,101022.95
2018-02-14T23:40:32.090Z,101029.67
2018-02-14T23:42:59.588Z,101017.81
2018-02-14T23:45:27.109Z,101019.94
2018-02-14T23:47:54.598Z,101015.83
2018-02-14T23:50:22.078Z,101017.01
2018-02-14T23:52:49.573Z,101006.84
2018-02-14T23:55:17.084Z,101009.31
2018-02-14T23:57:44.647Z,101008.82
